Time;durP1;ratioP1;P1;durP2;ratioP2;P2;SDS_P1;SDS_P2;PMS_P1;PMS_P2;Temp;Humidity;BMP_temperature;BMP_pressure;BME280_temperature;BME280_humidity;BME280_pressure;Samples;Min_cycle;Max_cycle;Signal;HPM_P1;HPM_P2
2020/12/08 00:00:42;;;;;;;9.30;5.22;;;;;;;8.30;87.66;100056.22;5012954;28;20033;-68
2020/12/08 00:03:08;;;;;;;9.45;5.03;;;;;;;8.16;88.35;100068.53;5011722;28;20030;-68
2020/12/08 00:05:33;;;;;;;10.40;4.75;;;;;;;8.16;89.21;100070.22;5013033;28;20026;-69
2020/12/08 00:07:59;;;;;;;9.30;4.93;;;;;;;8.14;89.23;100066.69;5012902;28;20022;-68
2020/12/08 00:10:24;;;;;;;8.93;5.13;;;;;;;8.15;89.31;100074.50;5013024;28;20384;-68
2020/12/08 00:12:51;;;;;;;8.80;4.80;;;;;;;7.71;89.69;100014.44;5013159;28;20476;-68
2020/12/08 00:15:18;;;;;;;11.02;4.88;;;;;;;7.96;90.03;100072.00;5012977;28;20463;-68
2020/12/08 00:17:44;;;;;;;7.53;4.75;;;;;;;7.97;90.36;100086.59;5017315;28;20066;-68
2020/12/08 00:20:11;;;;;;;6.95;4.60;;;;;;;7.84;91.33;100085.19;5014913;28;20145;-67
2020/12/08 00:22:37;;;;;;;12.02;5.57;;;;;;;7.77;91.66;100089.22;5016896;28;20105;-68
2020/12/08 00:25:05;;;;;;;8.55;4.38;;;;;;;7.73;92.10;100092.47;5012331;28;20117;-68
2020/12/08 00:27:30;;;;;;;8.70;4.55;;;;;;;7.72;92.40;100089.00;5009799;28;20042;-69
2020/12/08 00:29:55;;;;;;;7.38;4.60;;;;;;;7.64;92.60;100069.84;5016624;28;20439;-68
2020/12/08 00:32:21;;;;;;;8.05;4.70;;;;;;;7.57;93.23;100086.66;5012321;28;20496;-69
2020/12/08 00:34:46;;;;;;;7.75;4.53;;;;;;;7.60;93.56;100093.63;5012017;28;20022;-69
2020/12/08 00:37:12;;;;;;;9.60;3.97;;;;;;;7.58;93.65;100096.13;5012346;28;20045;-71
2020/12/08 00:39:37;;;;;;;6.05;3.88;;;;;;;7.39;93.59;100065.31;5012257;28;20080;-69
2020/12/08 00:42:06;;;;;;;5.90;3.40;;;;;;;7.50;94.32;100105.22;5012499;28;20100;-68
2020/12/08 00:44:32;;;;;;;7.40;3.10;;;;;;;7.29;95.55;100108.59;5012135;28;20108;-68
2020/12/08 00:46:57;;;;;;;6.20;4.00;;;;;;;7.19;95.45;100065.38;5011976;28;20563;-69
2020/12/08 00:49:23;;;;;;;7.32;3.53;;;;;;;7.34;94.97;100082.22;5013325;28;20032;-67
2020/12/08 00:51:48;;;;;;;33.83;30.67;;;;;;;7.54;94.61;100101.06;5017321;28;20110;-68
2020/12/08 00:54:13;;;;;;;5.70;3.85;;;;;;;7.37;94.52;100072.09;5011967;28;20026;-69
2020/12/08 00:56:40;;;;;;;9.93;6.53;;;;;;;7.59;94.03;100103.03;5015331;28;20034;-68
2020/12/08 00:59:05;;;;;;;6.85;3.80;;;;;;;7.36;94.77;100094.31;5016391;28;20054;-67
2020/12/08 01:01:31;;;;;;;6.25;3.83;;;;;;;7.36;95.07;100096.88;5008291;28;20184;-67
2020/12/08 01:03:56;;;;;;;8.43;4.28;;;;;;;7.47;95.05;100102.50;5004584;28;20018;-67
2020/12/08 01:06:22;;;;;;;5.47;3.55;;;;;;;7.52;94.63;100093.31;5006218;28;20060;-67
2020/12/08 01:08:47;;;;;;;6.05;3.17;;;;;;;7.60;94.05;100093.63;5006784;28;20037;-67
2020/12/08 01:11:13;;;;;;;8.07;4.32;;;;;;;7.66;94.12;100095.59;5003748;28;20033;-68
2020/12/08 01:13:39;;;;;;;16.60;9.77;;;;;;;7.71;93.33;100086.38;5011006;28;20116;-68
2020/12/08 01:16:05;;;;;;;11.18;10.05;;;;;;;7.72;92.50;100085.56;5010288;28;20546;-68
2020/12/08 01:18:31;;;;;;;5.13;3.75;;;;;;;7.78;92.40;100093.53;5010117;28;20045;-67
2020/12/08 01:20:56;;;;;;;6.68;3.80;;;;;;;7.77;92.09;100092.66;5010789;28;20042;-68
2020/12/08 01:23:26;;;;;;;6.40;4.93;;;;;;;7.76;91.91;100098.63;5010674;28;20026;-68
2020/12/08 01:25:51;;;;;;;8.25;6.43;;;;;;;7.79;91.78;100097.88;5010914;28;20025;-67
2020/12/08 01:28:17;;;;;;;5.28;2.53;;;;;;;7.71;91.66;100091.53;5010736;28;20381;-67
2020/12/08 01:30:48;;;;;;;4.70;2.15;;;;;;;7.60;92.28;100088.50;5010292;28;20026;-67
2020/12/08 01:33:14;;;;;;;4.40;1.98;;;;;;;7.67;92.06;100097.34;5013702;28;20415;-67
2020/12/08 01:35:40;;;;;;;17.25;9.52;;;;;;;7.69;92.12;100099.19;5011858;28;20029;-66
2020/12/08 01:38:05;;;;;;;15.32;9.30;;;;;;;7.49;91.85;100061.47;5012971;28;20427;-68
2020/12/08 01:40:31;;;;;;;15.05;12.10;;;;;;;7.68;91.84;100096.53;5010917;28;20037;-67
2020/12/08 01:42:57;;;;;;;7.10;2.53;;;;;;;7.60;92.18;100097.09;5010426;28;20506;-67
2020/12/08 01:45:23;;;;;;;8.13;6.80;;;;;;;7.63;92.13;100092.88;5009570;28;20163;-67
2020/12/08 01:47:48;;;;;;;6.22;2.97;;;;;;;7.60;91.95;100083.34;5009901;28;20053;-67
2020/12/08 01:50:14;;;;;;;4.75;2.70;;;;;;;7.53;91.86;100081.34;5047499;28;20131;-67
2020/12/08 01:52:40;;;;;;;4.80;2.88;;;;;;;7.58;92.03;100083.28;5047548;28;20419;-68
2020/12/08 01:55:05;;;;;;;14.25;12.82;;;;;;;7.54;91.96;100078.84;5048288;28;20033;-67
2020/12/08 01:57:32;;;;;;;4.95;2.70;;;;;;;7.59;91.92;100081.63;5047484;28;20028;-68
2020/12/08 01:59:57;;;;;;;3.10;1.90;;;;;;;7.61;91.76;100085.13;5048251;28;20037;-68
2020/12/08 02:02:24;;;;;;;2.65;1.92;;;;;;;7.57;91.86;100083.22;5047902;28;20039;-67
2020/12/08 02:04:50;;;;;;;3.30;2.03;;;;;;;7.52;92.12;100084.72;5047774;28;20499;-67
2020/12/08 02:07:15;;;;;;;2.63;1.60;;;;;;;7.56;91.86;100089.19;5048308;28;20147;-68
2020/12/08 02:09:40;;;;;;;2.63;1.60;;;;;;;7.38;91.94;100066.16;5048133;28;20032;-67
2020/12/08 02:12:06;;;;;;;6.35;3.08;;;;;;;7.46;91.86;100082.75;5031054;28;20419;-67
2020/12/08 02:14:31;;;;;;;2.88;2.28;;;;;;;7.55;91.60;100088.31;5047857;28;20036;-67
2020/12/08 02:16:57;;;;;;;3.88;2.78;;;;;;;7.54;91.52;100091.69;5046862;28;20037;-67
2020/12/08 02:19:22;;;;;;;14.35;13.00;;;;;;;7.49;91.55;100082.91;5035219;28;20037;-68
2020/12/08 02:21:48;;;;;;;4.60;2.45;;;;;;;7.54;91.77;100086.56;5019946;28;20037;-68
2020/12/08 02:24:16;;;;;;;2.30;1.45;;;;;;;7.51;91.78;100094.13;5010501;28;20404;-68
2020/12/08 02:26:43;;;;;;;1.63;1.20;;;;;;;7.38;91.85;100071.31;5009765;28;20018;-68
2020/12/08 02:29:09;;;;;;;2.67;1.70;;;;;;;7.42;91.89;100094.59;5010050;28;20034;-68
2020/12/08 02:31:35;;;;;;;5.20;2.75;;;;;;;7.39;92.06;100097.03;5010534;28;20073;-68
2020/12/08 02:34:00;;;;;;;13.70;6.68;;;;;;;7.38;92.03;100097.84;5010263;28;20510;-68
2020/12/08 02:36:26;;;;;;;5.20;2.97;;;;;;;7.39;92.40;100098.72;5006431;28;20049;-68
2020/12/08 02:38:51;;;;;;;22.67;20.50;;;;;;;7.42;92.13;100109.13;5007287;28;20508;-68
2020/12/08 02:41:16;;;;;;;3.45;2.78;;;;;;;7.36;92.51;100099.47;5010544;28;20502;-68
2020/12/08 02:43:42;;;;;;;3.97;2.65;;;;;;;7.35;92.44;100092.59;5010714;28;20026;-70
2020/12/08 02:46:10;;;;;;;4.40;3.20;;;;;;;7.29;92.57;100095.75;5010006;28;20113;-68
2020/12/08 02:48:36;;;;;;;5.10;3.78;;;;;;;7.17;92.35;100079.81;5010550;28;20038;-68
2020/12/08 02:51:01;;;;;;;3.05;2.30;;;;;;;7.27;92.26;100083.66;5010450;28;20061;-68
2020/12/08 02:53:27;;;;;;;4.15;2.97;;;;;;;7.34;92.44;100101.09;5010363;28;20034;-68
2020/12/08 02:55:52;;;;;;;5.57;3.40;;;;;;;7.31;92.12;100105.22;5009474;28;20026;-68
2020/12/08 02:58:17;;;;;;;5.45;3.47;;;;;;;7.11;92.14;100075.25;5010193;28;20034;-68
2020/12/08 03:00:43;;;;;;;4.43;2.92;;;;;;;7.19;91.86;100106.44;5009106;28;20450;-67
2020/12/08 03:03:08;;;;;;;6.55;3.92;;;;;;;7.11;92.27;100112.91;5008085;28;20097;-67
2020/12/08 03:05:34;;;;;;;26.20;23.80;;;;;;;7.12;92.73;100095.00;5010238;28;20396;-67
2020/12/08 03:07:59;;;;;;;6.93;5.32;;;;;;;7.12;92.01;100102.69;5010282;28;20041;-68
2020/12/08 03:10:25;;;;;;;4.15;2.40;;;;;;;7.09;91.74;100105.13;5009890;28;20037;-68
2020/12/08 03:12:51;;;;;;;1.85;1.52;;;;;;;7.10;91.77;100116.28;5009936;28;20061;-67
2020/12/08 03:15:17;;;;;;;6.95;4.65;;;;;;;7.03;91.34;100111.66;5009410;28;20038;-68
2020/12/08 03:17:42;;;;;;;4.35;1.50;;;;;;;7.05;91.51;100131.50;5010664;28;20057;-68
2020/12/08 03:20:08;;;;;;;2.63;1.38;;;;;;;6.67;91.48;100078.38;5009809;28;20061;-68
2020/12/08 03:22:35;;;;;;;4.55;1.73;;;;;;;6.88;91.48;100125.56;5025412;28;20026;-69
2020/12/08 03:25:01;;;;;;;6.35;2.20;;;;;;;6.89;91.86;100136.72;5009928;28;20030;-68
2020/12/08 03:27:26;;;;;;;8.60;3.42;;;;;;;6.93;91.69;100136.94;4996380;28;20069;-67
2020/12/08 03:29:52;;;;;;;8.48;7.72;;;;;;;6.98;91.62;100142.28;5006043;28;20046;-67
2020/12/08 03:32:17;;;;;;;2.38;1.83;;;;;;;6.86;91.17;100140.00;5004288;28;20068;-67
2020/12/08 03:34:43;;;;;;;5.85;4.80;;;;;;;6.85;91.31;100150.22;5008467;28;20025;-66
2020/12/08 03:37:08;;;;;;;2.10;1.60;;;;;;;6.78;92.12;100167.00;5008542;28;20593;-66
2020/12/08 03:39:34;;;;;;;4.50;3.75;;;;;;;6.79;92.24;100166.19;5008810;28;20024;-67
2020/12/08 03:42:00;;;;;;;2.42;1.80;;;;;;;6.70;92.50;100169.19;5012067;28;20072;-67
2020/12/08 03:44:28;;;;;;;4.20;1.90;;;;;;;6.63;92.54;100175.72;5009592;28;20027;-66
2020/12/08 03:46:58;;;;;;;3.67;1.63;;;;;;;6.56;92.61;100171.09;5012015;28;20030;-66
2020/12/08 03:49:26;;;;;;;;;;;;;;;6.54;92.57;100174.41;5010212;28;20026;-67
2020/12/08 03:51:58;;;;;;;3.58;2.10;;;;;;;6.50;92.40;100175.06;5011817;28;19984;-66
2020/12/08 03:54:24;;;;;;;3.60;3.30;;;;;;;6.38;92.48;100168.53;5009581;28;20125;-66
2020/12/08 03:56:50;;;;;;;2.78;1.85;;;;;;;6.35;92.68;100168.38;5010978;28;20108;-67
2020/12/08 03:59:19;;;;;;;3.03;2.72;;;;;;;6.18;93.09;100153.84;5011413;28;20022;-67
2020/12/08 04:01:46;;;;;;;44.90;40.78;;;;;;;6.31;93.36;100190.41;5025939;28;20484;-66
2020/12/08 04:04:12;;;;;;;2.90;2.10;;;;;;;6.13;93.84;100162.19;5026948;28;20548;-66
2020/12/08 04:06:39;;;;;;;3.67;2.20;;;;;;;6.36;93.56;100197.47;5009148;28;20087;-66
2020/12/08 04:09:05;;;;;;;13.60;6.80;;;;;;;6.36;93.76;100192.34;5011665;28;20077;-67
2020/12/08 04:11:32;;;;;;;3.83;2.33;;;;;;;6.38;93.82;100203.53;5008571;28;20034;-67
2020/12/08 04:13:58;;;;;;;13.68;6.43;;;;;;;6.45;93.69;100213.31;5013367;28;20041;-66
2020/12/08 04:16:23;;;;;;;4.85;2.95;;;;;;;6.48;93.83;100227.16;5013590;28;20427;-66
2020/12/08 07:30:47;;;;;;;5.00;2.22;;;;;;;7.49;78.56;100351.72;5068833;28;20089;-75
2020/12/08 07:33:14;;;;;;;2.90;1.38;;;;;;;7.35;78.41;100320.25;5072558;28;20064;-75
2020/12/08 07:35:46;;;;;;;1.95;1.13;;;;;;;7.47;78.69;100350.78;5059091;28;20036;-75
2020/12/08 07:38:12;;;;;;;2.00;1.27;;;;;;;7.48;79.30;100361.13;5035255;28;20390;-75
2020/12/08 07:40:40;;;;;;;3.22;1.90;;;;;;;7.57;78.51;100365.81;5072824;28;20025;-75
2020/12/08 07:43:06;;;;;;;3.72;2.65;;;;;;;7.53;78.44;100364.78;5073161;28;20055;-75
2020/12/08 07:45:44;;;;;;;5.45;3.22;;;;;;;7.68;78.70;100364.63;5073377;28;20059;-75
2020/12/08 07:48:12;;;;;;;5.57;3.08;;;;;;;7.53;77.63;100369.94;5073599;28;20107;-75
2020/12/08 07:50:37;;;;;;;4.68;3.42;;;;;;;7.47;78.97;100364.50;5073046;28;20466;-75
2020/12/08 07:53:04;;;;;;;7.88;4.82;;;;;;;7.60;78.04;100371.09;5053496;28;20055;-75
2020/12/08 07:55:37;;;;;;;101.63;69.57;;;;;;;7.75;79.01;100376.97;5070093;28;20028;-75
2020/12/08 07:58:03;;;;;;;8.05;5.55;;;;;;;7.80;77.42;100372.06;5070240;28;20032;-75
2020/12/08 08:00:28;;;;;;;6.50;4.30;;;;;;;7.92;76.88;100372.63;5069347;28;20066;-75
2020/12/08 08:02:53;;;;;;;6.55;4.00;;;;;;;7.95;76.89;100374.44;5071934;28;20393;-75
2020/12/08 08:05:19;;;;;;;4.65;3.08;;;;;;;7.77;76.20;100364.19;5072706;28;20020;-75
2020/12/08 08:07:44;;;;;;;5.60;3.67;;;;;;;7.83;77.22;100377.31;5073119;28;20523;-75
2020/12/08 08:10:10;;;;;;;5.10;3.33;;;;;;;8.03;77.04;100374.78;5072990;28;20017;-75
2020/12/08 08:12:35;;;;;;;6.28;4.00;;;;;;;8.05;77.04;100370.59;5071335;28;20037;-75
2020/12/08 08:15:01;;;;;;;5.05;3.70;;;;;;;8.11;76.17;100368.28;5070700;28;20134;-75
2020/12/08 08:17:26;;;;;;;4.85;3.47;;;;;;;8.09;76.53;100350.22;5070913;28;20024;-75
2020/12/08 08:19:52;;;;;;;6.95;4.40;;;;;;;8.13;75.86;100381.25;5056459;28;20149;-75
2020/12/08 08:22:18;;;;;;;5.35;3.67;;;;;;;8.25;77.00;100385.22;5071749;28;20115;-75
2020/12/08 08:24:43;;;;;;;6.45;4.05;;;;;;;8.20;77.62;100384.16;5056784;28;20031;-75
2020/12/08 08:27:09;;;;;;;6.80;4.25;;;;;;;8.22;77.57;100394.50;5072512;28;20102;-75
2020/12/08 08:29:34;;;;;;;7.53;5.03;;;;;;;8.14;78.96;100365.88;5072229;28;20490;-75
2020/12/08 08:32:00;;;;;;;5.88;4.22;;;;;;;8.42;79.36;100393.72;5072011;28;20430;-74
2020/12/08 08:34:25;;;;;;;5.88;4.05;;;;;;;8.46;79.96;100381.91;5053847;28;20029;-75
2020/12/08 08:36:55;;;;;;;7.65;5.25;;;;;;;8.33;80.39;100382.13;5072409;28;20402;-75
2020/12/08 08:39:21;;;;;;;8.63;4.95;;;;;;;8.15;80.17;100357.34;5054376;28;20028;-75
2020/12/08 08:41:46;;;;;;;10.57;8.55;;;;;;;8.31;81.71;100388.88;5072256;28;20082;-75
2020/12/08 08:44:12;;;;;;;6.45;5.15;;;;;;;8.22;81.33;100394.50;5072599;28;20040;-75
2020/12/08 08:46:39;;;;;;;10.32;7.38;;;;;;;8.26;82.72;100397.28;5072086;28;20043;-75
2020/12/08 08:49:04;;;;;;;8.85;6.47;;;;;;;8.43;81.47;100387.72;5072469;28;20095;-75
2020/12/08 08:51:29;;;;;;;8.48;6.97;;;;;;;8.66;80.83;100389.59;5054276;28;20108;-75
2020/12/08 08:53:55;;;;;;;13.93;12.43;;;;;;;8.64;81.01;100362.94;5072402;28;20052;-75
2020/12/08 08:56:20;;;;;;;10.95;9.20;;;;;;;8.67;80.78;100374.22;5071978;28;20389;-75
2020/12/08 08:58:46;;;;;;;6.93;5.90;;;;;;;8.58;79.32;100395.31;5062914;28;20025;-74
2020/12/08 09:01:11;;;;;;;15.65;14.00;;;;;;;8.60;80.54;100386.75;5061028;28;20024;-74
2020/12/08 09:03:38;;;;;;;7.55;5.50;;;;;;;8.73;80.50;100373.59;5071063;28;20020;-74
2020/12/08 09:06:04;;;;;;;7.28;5.57;;;;;;;8.70;79.13;100374.34;5071706;28;20037;-74
2020/12/08 09:08:29;;;;;;;5.70;4.05;;;;;;;8.57;79.10;100390.06;5071637;28;20109;-74
2020/12/08 09:10:55;;;;;;;5.20;4.47;;;;;;;8.42;80.66;100382.53;5052270;28;20490;-74
2020/12/08 09:13:20;;;;;;;6.15;5.28;;;;;;;8.57;79.71;100396.13;5070828;28;20025;-75
2020/12/08 09:15:46;;;;;;;5.97;4.40;;;;;;;8.66;79.55;100398.22;5069263;28;20038;-74
2020/12/08 09:18:12;;;;;;;5.15;3.70;;;;;;;8.72;77.42;100383.03;5070887;28;20028;-74
2020/12/08 09:20:37;;;;;;;6.45;5.35;;;;;;;8.73;77.92;100341.03;5070081;28;20106;-74
2020/12/08 09:23:03;;;;;;;7.68;5.85;;;;;;;9.07;78.51;100398.19;5070227;28;20486;-74
2020/12/08 09:25:28;;;;;;;6.15;4.93;;;;;;;9.03;76.99;100401.47;5068613;28;20544;-74
2020/12/08 09:27:55;;;;;;;6.97;5.50;;;;;;;8.84;77.38;100398.09;5071138;28;20054;-74
2020/12/08 09:30:22;;;;;;;6.35;4.60;;;;;;;9.16;76.14;100389.97;5051792;28;20028;-75
2020/12/08 09:32:49;;;;;;;5.65;4.20;;;;;;;9.04;77.53;100403.22;5023810;28;20061;-75
2020/12/08 09:35:15;;;;;;;5.70;3.92;;;;;;;8.80;78.77;100408.19;5015775;28;20103;-74
2020/12/08 09:37:41;;;;;;;24.95;15.60;;;;;;;9.03;78.42;100386.00;5009622;28;20120;-74
2020/12/08 09:40:06;;;;;;;7.75;5.45;;;;;;;9.27;77.03;100373.28;5010897;28;20661;-75
2020/12/08 09:42:32;;;;;;;6.53;4.90;;;;;;;9.35;78.29;100407.94;5029299;28;20120;-74
2020/12/08 09:44:57;;;;;;;6.75;5.10;;;;;;;9.22;78.62;100406.56;5026902;28;20112;-75
2020/12/08 09:47:23;;;;;;;6.88;5.32;;;;;;;8.95;80.07;100406.28;5027158;28;20034;-75
2020/12/08 09:49:48;;;;;;;6.35;3.60;;;;;;;8.95;77.60;100405.41;5027937;28;20029;-74
2020/12/08 09:52:14;;;;;;;5.68;3.92;;;;;;;9.04;77.54;100396.38;5027763;28;20037;-75
2020/12/08 09:54:39;;;;;;;6.93;4.97;;;;;;;9.12;78.67;100408.69;5025962;28;20092;-74
2020/12/08 09:57:05;;;;;;;6.55;5.00;;;;;;;9.05;79.77;100408.44;5029125;28;20029;-74
2020/12/08 09:59:32;;;;;;;8.02;6.07;;;;;;;9.17;79.46;100407.19;5028923;28;20065;-75
2020/12/08 10:02:01;;;;;;;8.65;5.13;;;;;;;9.57;77.99;100402.78;5028962;28;20034;-75
2020/12/08 10:04:27;;;;;;;5.00;4.20;;;;;;;9.47;77.20;100417.88;5041049;28;20418;-75
2020/12/08 10:06:52;;;;;;;6.38;4.80;;;;;;;9.54;76.67;100401.84;5066607;28;20042;-75
2020/12/08 10:09:17;;;;;;;8.50;5.32;;;;;;;9.77;76.64;100390.66;5069967;28;20020;-75
2020/12/08 10:11:43;;;;;;;5.70;3.78;;;;;;;9.52;76.45;100388.03;5070942;28;20028;-75
2020/12/08 10:14:08;;;;;;;8.25;4.88;;;;;;;9.40;76.76;100405.56;5052071;28;20035;-75
2020/12/08 10:16:34;;;;;;;5.35;4.10;;;;;;;9.69;76.43;100390.38;5070986;28;20466;-75
2020/12/08 10:19:00;;;;;;;6.47;4.95;;;;;;;9.96;74.89;100387.97;5070893;28;20021;-75
2020/12/08 10:21:25;;;;;;;6.45;4.78;;;;;;;10.02;74.40;100395.97;5071288;28;20024;-75
2020/12/08 10:23:52;;;;;;;8.95;5.80;;;;;;;9.81;75.21;100333.25;5069688;28;20033;-75
2020/12/08 10:26:18;;;;;;;6.07;4.68;;;;;;;10.13;73.11;100349.94;5066655;28;20044;-74
2020/12/08 10:28:43;;;;;;;7.57;5.40;;;;;;;10.49;72.28;100392.53;5061382;28;20030;-74
2020/12/08 10:31:09;;;;;;;4.80;3.53;;;;;;;10.48;70.65;100370.09;5059187;28;20444;-74
2020/12/08 10:33:35;;;;;;;5.35;3.92;;;;;;;10.68;70.42;100387.19;5045109;28;20494;-75
2020/12/08 10:36:00;;;;;;;6.63;3.70;;;;;;;10.64;71.83;100384.44;5048319;28;20054;-74
2020/12/08 10:38:29;;;;;;;7.93;4.47;;;;;;;10.49;73.25;100359.88;5069716;28;20517;-75
2020/12/08 10:40:55;;;;;;;4.60;3.33;;;;;;;10.24;72.57;100381.25;5069314;28;20474;-74
2020/12/08 10:43:20;;;;;;;5.32;3.92;;;;;;;10.07;73.31;100379.75;5070539;28;20036;-74
2020/12/08 10:45:47;;;;;;;7.63;4.13;;;;;;;10.40;72.10;100380.16;5070420;28;20389;-75
2020/12/08 10:48:13;;;;;;;6.85;3.88;;;;;;;10.39;72.01;100370.66;5072329;28;20601;-74
2020/12/08 10:50:39;;;;;;;4.53;3.35;;;;;;;10.47;71.09;100371.81;5074656;28;20029;-77
2020/12/08 10:53:05;;;;;;;17.65;12.43;;;;;;;10.57;71.36;100379.91;5074530;28;20028;-77
2020/12/08 10:55:31;;;;;;;4.93;3.55;;;;;;;10.65;71.13;100370.72;5056501;28;20036;-77
2020/12/08 10:58:17;;;;;;;6.20;4.30;;;;;;;10.72;70.49;100377.00;5073536;28;20024;-76
2020/12/08 11:00:43;;;;;;;8.90;4.55;;;;;;;10.59;71.67;100379.13;5051206;28;20052;-76
2020/12/08 11:03:08;;;;;;;6.05;4.07;;;;;;;10.97;70.31;100363.19;5051267;28;20465;-75
2020/12/08 11:05:33;;;;;;;5.15;3.38;;;;;;;11.07;69.50;100351.47;5027640;28;20507;-77
2020/12/08 11:07:59;;;;;;;7.53;4.78;;;;;;;11.31;68.38;100372.06;5022281;28;20034;-76
2020/12/08 11:10:24;;;;;;;8.43;6.22;;;;;;;11.26;69.36;100376.19;5030253;28;20056;-76
2020/12/08 11:12:50;;;;;;;6.00;3.83;;;;;;;11.34;68.66;100374.75;5021134;28;20033;-75
2020/12/08 11:15:15;;;;;;;4.82;3.65;;;;;;;11.51;68.42;100377.00;4993909;28;20122;-76
2020/12/08 11:17:42;;;;;;;5.00;3.40;;;;;;;11.39;67.69;100377.47;5011315;28;20058;-76
2020/12/08 11:20:08;;;;;;;5.10;3.60;;;;;;;11.50;69.11;100370.91;5009401;28;20045;-73
2020/12/08 11:22:33;;;;;;;5.10;3.90;;;;;;;11.68;67.98;100368.06;5011699;28;20041;-75
2020/12/08 11:25:00;;;;;;;6.07;3.72;;;;;;;11.75;67.66;100346.72;5029956;28;20033;-76
2020/12/08 11:27:25;;;;;;;6.90;5.05;;;;;;;11.49;68.00;100375.22;5030493;28;20042;-77
2020/12/08 11:29:50;;;;;;;4.05;3.10;;;;;;;11.66;68.30;100377.47;5014583;28;20518;-77
2020/12/08 11:32:17;;;;;;;9.35;6.03;;;;;;;11.80;68.47;100373.59;5071881;28;20051;-76
2020/12/08 11:34:43;;;;;;;18.15;13.73;;;;;;;11.81;67.53;100377.94;5076202;28;20033;-75
2020/12/08 11:37:08;;;;;;;6.53;3.63;;;;;;;11.82;67.95;100369.38;5071826;28;20056;-74
2020/12/08 11:39:34;;;;;;;5.15;2.63;;;;;;;11.89;66.97;100370.41;5071757;28;20478;-76
2020/12/08 11:42:01;;;;;;;4.43;2.80;;;;;;;11.96;67.05;100363.72;5073406;28;20115;-75
2020/12/08 11:44:26;;;;;;;5.00;3.28;;;;;;;11.86;66.83;100366.84;5072115;28;20025;-74
2020/12/08 11:46:52;;;;;;;3.03;2.20;;;;;;;11.82;67.02;100364.19;5072721;28;20037;-74
2020/12/08 11:49:19;;;;;;;3.75;2.53;;;;;;;11.75;66.37;100369.09;5071429;28;21352;-73
2020/12/08 11:51:45;;;;;;;2.38;1.88;;;;;;;11.63;65.46;100364.44;5070359;28;20024;-75
2020/12/08 11:54:10;;;;;;;4.13;2.50;;;;;;;11.51;66.75;100357.19;5072815;28;20036;-74
2020/12/08 11:56:36;;;;;;;3.80;2.50;;;;;;;11.41;66.68;100345.66;5072272;28;20051;-76
2020/12/08 11:59:02;;;;;;;4.70;2.65;;;;;;;11.48;67.51;100372.59;5071478;28;20385;-75
2020/12/08 12:01:27;;;;;;;7.07;4.25;;;;;;;11.44;66.75;100373.31;5070251;28;20040;-78
2020/12/08 12:03:53;;;;;;;19.60;11.55;;;;;;;11.41;64.54;100373.22;5071663;28;20024;-75
2020/12/08 12:06:18;;;;;;;41.10;15.27;;;;;;;11.20;65.27;100386.34;5071547;28;20032;-77
2020/12/08 12:08:44;;;;;;;37.17;18.25;;;;;;;11.12;66.71;100383.50;5054061;28;20024;-76
2020/12/08 12:11:09;;;;;;;65.00;45.97;;;;;;;11.06;66.95;100393.63;5071872;28;20029;-75
2020/12/08 12:13:35;;;;;;;5.80;3.40;;;;;;;11.04;66.82;100384.94;5072242;28;20021;-77
2020/12/08 12:16:00;;;;;;;4.03;2.13;;;;;;;11.09;66.87;100399.78;5072068;28;20025;-74
2020/12/08 12:18:26;;;;;;;2.78;1.50;;;;;;;11.06;65.60;100389.31;5072100;28;20530;-76
2020/12/08 12:20:52;;;;;;;6.10;2.85;;;;;;;11.07;65.67;100396.25;5071980;28;20024;-76
2020/12/08 12:23:18;;;;;;;8.48;4.10;;;;;;;11.16;64.41;100400.84;5071212;28;20056;-75
2020/12/08 12:25:43;;;;;;;4.95;1.38;;;;;;;11.04;64.69;100369.44;5071543;28;20032;-76
2020/12/08 12:28:09;;;;;;;7.72;6.93;;;;;;;11.27;65.04;100406.38;5071484;28;20032;-74
2020/12/08 12:30:34;;;;;;;9.60;6.53;;;;;;;11.31;65.06;100403.06;5071493;28;20450;-75
2020/12/08 12:33:01;;;;;;;4.95;3.13;;;;;;;11.32;64.42;100402.25;5070742;28;20051;-74
2020/12/08 12:35:26;;;;;;;5.20;2.75;;;;;;;11.42;65.71;100400.84;5047392;28;20510;-76
2020/12/08 12:37:52;;;;;;;8.77;7.95;;;;;;;11.49;64.62;100401.09;5069922;28;20032;-74
2020/12/08 12:40:17;;;;;;;9.70;4.20;;;;;;;11.46;63.83;100400.09;5070050;28;20403;-77
2020/12/08 12:42:43;;;;;;;8.77;6.88;;;;;;;11.43;63.85;100403.47;5071319;28;20393;-76
2020/12/08 12:45:09;;;;;;;4.13;2.70;;;;;;;11.44;65.15;100407.81;5071344;28;20035;-76
2020/12/08 12:47:34;;;;;;;5.80;2.30;;;;;;;11.46;64.42;100411.34;5050488;28;20031;-75
2020/12/08 12:50:00;;;;;;;4.18;1.48;;;;;;;11.40;63.84;100400.81;5071723;28;20025;-76
2020/12/08 12:52:25;;;;;;;5.15;3.00;;;;;;;11.35;63.86;100411.81;5072108;28;20466;-76
2020/12/08 12:54:52;;;;;;;4.22;1.73;;;;;;;11.37;63.79;100405.84;5069919;28;20040;-77
2020/12/08 12:57:18;;;;;;;10.30;4.70;;;;;;;11.23;63.99;100413.16;5048050;28;20067;-76
2020/12/08 12:59:43;;;;;;;16.70;13.10;;;;;;;11.20;64.13;100412.19;5072224;28;20029;-75
2020/12/08 13:02:09;;;;;;;8.98;5.40;;;;;;;11.09;64.34;100419.56;5065987;28;20378;-75
2020/12/08 13:04:35;;;;;;;2.40;1.75;;;;;;;10.99;63.23;100411.50;5049941;28;20474;-75
2020/12/08 13:07:00;;;;;;;7.60;4.03;;;;;;;10.88;64.36;100394.75;5071365;28;20028;-74
2020/12/08 13:09:26;;;;;;;4.72;3.33;;;;;;;11.05;64.16;100431.47;5071244;28;20025;-73
2020/12/08 13:11:52;;;;;;;6.43;2.85;;;;;;;11.07;64.41;100423.81;5070984;28;20062;-72
2020/12/08 13:14:17;;;;;;;7.45;5.00;;;;;;;10.73;65.00;100379.63;5050728;28;20705;-73
2020/12/08 13:16:43;;;;;;;16.00;9.35;;;;;;;10.89;64.66;100417.19;5067736;28;20116;-73
2020/12/08 13:19:09;;;;;;;7.20;6.15;;;;;;;10.93;65.77;100426.78;5070375;28;20094;-72
2020/12/08 13:21:34;;;;;;;7.47;5.13;;;;;;;10.88;65.55;100430.91;5071851;28;20032;-72
2020/12/08 13:24:00;;;;;;;6.53;3.75;;;;;;;10.72;65.12;100429.50;5071536;28;20127;-74
2020/12/08 13:26:25;;;;;;;6.57;4.55;;;;;;;10.34;65.09;100418.63;5071302;28;20033;-74
2020/12/08 13:28:52;;;;;;;22.27;13.90;;;;;;;10.38;64.39;100429.97;5071348;28;20024;-74
2020/12/08 13:31:18;;;;;;;73.78;36.50;;;;;;;10.41;64.73;100441.28;5072016;28;20024;-74
2020/12/08 13:33:43;;;;;;;38.10;18.17;;;;;;;10.30;64.33;100422.78;5071523;28;20044;-74
2020/12/08 13:36:09;;;;;;;16.88;10.55;;;;;;;10.44;64.70;100440.53;5069890;28;20044;-75
2020/12/08 13:38:34;;;;;;;12.48;8.13;;;;;;;10.41;63.95;100441.28;5071586;28;20040;-73
2020/12/08 13:41:00;;;;;;;5.45;3.03;;;;;;;10.33;63.08;100440.06;5071358;28;20016;-76
2020/12/08 13:43:25;;;;;;;8.50;2.60;;;;;;;10.34;62.98;100441.84;5048593;28;20024;-77
2020/12/08 13:45:51;;;;;;;7.60;3.72;;;;;;;10.35;63.33;100456.50;5070728;28;20107;-73
2020/12/08 13:48:17;;;;;;;8.57;4.00;;;;;;;10.32;63.51;100446.94;5070839;28;20393;-73
2020/12/08 13:50:43;;;;;;;89.22;56.38;;;;;;;10.31;62.89;100452.94;5070978;28;20028;-75
2020/12/08 13:53:12;;;;;;;13.80;8.40;;;;;;;10.20;61.09;100446.47;5070985;28;20111;-72
2020/12/08 13:55:40;;;;;;;6.07;3.42;;;;;;;10.18;59.92;100446.44;5071085;28;20090;-75
2020/12/08 13:58:06;;;;;;;20.25;9.20;;;;;;;10.12;61.14;100453.03;5069883;28;20052;-73
2020/12/08 14:00:32;;;;;;;20.65;5.47;;;;;;;10.07;61.06;100447.72;5070690;28;20503;-78
2020/12/08 14:03:02;;;;;;;18.02;5.72;;;;;;;10.09;61.68;100452.94;5067243;28;20017;-73
2020/12/08 14:05:28;;;;;;;19.70;5.63;;;;;;;10.06;61.63;100452.84;5069604;28;20031;-78
2020/12/08 14:07:54;;;;;;;15.25;3.88;;;;;;;9.94;60.63;100448.94;5067697;28;20032;-72
2020/12/08 14:10:20;;;;;;;19.85;8.77;;;;;;;9.95;62.12;100447.25;5070067;28;20024;-74
2020/12/08 14:12:46;;;;;;;13.07;4.90;;;;;;;9.96;62.07;100456.75;5070503;28;20021;-72
2020/12/08 14:15:11;;;;;;;8.93;6.72;;;;;;;9.95;61.66;100452.41;5070523;28;20039;-72
2020/12/08 14:17:38;;;;;;;11.90;6.43;;;;;;;9.92;61.77;100471.22;5051526;28;20055;-72
2020/12/08 14:20:04;;;;;;;8.48;3.95;;;;;;;9.94;62.33;100471.28;5051306;28;20046;-73
2020/12/08 14:22:30;;;;;;;16.90;11.30;;;;;;;9.92;62.57;100480.63;5051353;28;20041;-71
2020/12/08 14:24:57;;;;;;;14.15;8.95;;;;;;;9.90;62.44;100484.88;5069436;28;20021;-73
2020/12/08 14:27:23;;;;;;;12.25;8.73;;;;;;;9.58;63.22;100464.69;5068292;28;20039;-73
2020/12/08 14:29:48;;;;;;;7.80;6.03;;;;;;;9.59;63.62;100473.31;5070281;28;20024;-72
2020/12/08 14:32:14;;;;;;;11.27;8.25;;;;;;;9.40;63.98;100457.09;5069857;28;20044;-72
2020/12/08 14:34:39;;;;;;;8.68;5.65;;;;;;;9.57;64.22;100486.16;5049528;28;20033;-74